Terminal Aerodrome Forecast
Issued by NWS Sioux Falls, SD

Home | Current Version | Previous Version | Graphics & Text | Print | Product List | Glossary On
Versions: 1 2 3 4 5 6 7 8 9 10 11 12 13 14 15 16 17 18
000
FTUS43 KFSD 181739
TAFFSD
TAF
KFSD 181739Z 1818/1918 15003KT P6SM BKN250
     FM191200 14006KT P6SM BKN200
     FM191600 16012KT P6SM BKN200=

USA.gov is the U.S. government's official web portal to all federal, state and local government web resources and services.